sensor_id;sensor_type;location;lat;lon;timestamp;pressure;altitude;pressure_sealevel;temperature;humidity
64189;BME280;50493;50.970;10.082;2022-12-07T00:01:04;99227.41;;;3.01;68.84
64189;BME280;50493;50.970;10.082;2022-12-07T00:03:31;99221.47;;;3.16;67.66
64189;BME280;50493;50.970;10.082;2022-12-07T00:05:57;99218.81;;;3.10;68.37
64189;BME280;50493;50.970;10.082;2022-12-07T00:08:22;99219.72;;;3.14;68.68
64189;BME280;50493;50.970;10.082;2022-12-07T00:10:48;99217.25;;;3.37;66.57
64189;BME280;50493;50.970;10.082;2022-12-07T00:13:13;99207.75;;;3.34;67.84
64189;BME280;50493;50.970;10.082;2022-12-07T00:15:39;99209.41;;;3.17;68.33
64189;BME280;50493;50.970;10.082;2022-12-07T00:18:04;99210.91;;;2.87;69.38
64189;BME280;50493;50.970;10.082;2022-12-07T00:20:31;99198.25;;;3.27;66.07
64189;BME280;50493;50.970;10.082;2022-12-07T00:22:57;99198.22;;;3.18;65.84
64189;BME280;50493;50.970;10.082;2022-12-07T00:25:22;99203.75;;;2.49;68.43
64189;BME280;50493;50.970;10.082;2022-12-07T00:27:47;99191.94;;;2.82;67.11
64189;BME280;50493;50.970;10.082;2022-12-07T00:30:13;99197.66;;;2.40;69.06
64189;BME280;50493;50.970;10.082;2022-12-07T00:32:39;99192.56;;;2.50;70.07
64189;BME280;50493;50.970;10.082;2022-12-07T00:35:05;99190.97;;;2.66;68.86
64189;BME280;50493;50.970;10.082;2022-12-07T00:37:32;99189.19;;;2.57;68.30
64189;BME280;50493;50.970;10.082;2022-12-07T00:39:57;99194.34;;;2.54;69.71
64189;BME280;50493;50.970;10.082;2022-12-07T00:42:22;99191.78;;;2.59;70.17
64189;BME280;50493;50.970;10.082;2022-12-07T00:44:48;99188.50;;;2.83;68.78
64189;BME280;50493;50.970;10.082;2022-12-07T00:47:13;99178.88;;;2.59;68.10
64189;BME280;50493;50.970;10.082;2022-12-07T00:49:38;99181.59;;;2.79;69.35
64189;BME280;50493;50.970;10.082;2022-12-07T00:52:04;99182.50;;;2.84;69.34
64189;BME280;50493;50.970;10.082;2022-12-07T00:54:31;99183.38;;;2.86;67.85
64189;BME280;50493;50.970;10.082;2022-12-07T00:56:56;99181.72;;;2.96;68.82
64189;BME280;50493;50.970;10.082;2022-12-07T00:59:21;99183.34;;;2.81;69.58
64189;BME280;50493;50.970;10.082;2022-12-07T01:01:47;99169.88;;;3.33;69.17
64189;BME280;50493;50.970;10.082;2022-12-07T01:04:12;99171.72;;;3.59;67.32
64189;BME280;50493;50.970;10.082;2022-12-07T01:06:38;99169.19;;;3.95;65.09
64189;BME280;50493;50.970;10.082;2022-12-07T01:09:03;99161.44;;;3.81;65.94
64189;BME280;50493;50.970;10.082;2022-12-07T01:11:31;99160.44;;;3.49;66.95
64189;BME280;50493;50.970;10.082;2022-12-07T01:13:59;99161.28;;;3.47;66.90
64189;BME280;50493;50.970;10.082;2022-12-07T01:16:26;99157.81;;;3.35;67.67
64189;BME280;50493;50.970;10.082;2022-12-07T01:18:56;99155.28;;;3.45;66.74
64189;BME280;50493;50.970;10.082;2022-12-07T01:21:23;99149.25;;;3.52;65.34
64189;BME280;50493;50.970;10.082;2022-12-07T01:23:50;99141.53;;;3.55;69.20
64189;BME280;50493;50.970;10.082;2022-12-07T01:26:18;99143.31;;;3.82;67.25
64189;BME280;50493;50.970;10.082;2022-12-07T01:28:45;99147.53;;;3.48;66.67
64189;BME280;50493;50.970;10.082;2022-12-07T01:31:12;99151.84;;;3.52;67.19
64189;BME280;50493;50.970;10.082;2022-12-07T01:33:40;99139.88;;;3.85;66.15
64189;BME280;50493;50.970;10.082;2022-12-07T01:36:07;99142.44;;;3.76;66.07
64189;BME280;50493;50.970;10.082;2022-12-07T01:38:33;99145.81;;;3.53;66.97
64189;BME280;50493;50.970;10.082;2022-12-07T01:41:00;99140.72;;;3.84;65.87
64189;BME280;50493;50.970;10.082;2022-12-07T01:43:27;99132.13;;;3.88;64.76
64189;BME280;50493;50.970;10.082;2022-12-07T01:45:55;99137.28;;;3.79;66.05
64189;BME280;50493;50.970;10.082;2022-12-07T01:48:24;99138.13;;;3.78;64.68
64189;BME280;50493;50.970;10.082;2022-12-07T01:50:53;99142.44;;;3.79;65.39
64189;BME280;50493;50.970;10.082;2022-12-07T01:53:21;99139.84;;;3.80;65.54
64189;BME280;50493;50.970;10.082;2022-12-07T01:55:52;99138.88;;;3.36;67.34
64189;BME280;50493;50.970;10.082;2022-12-07T01:58:18;99142.34;;;3.45;67.47
64189;BME280;50493;50.970;10.082;2022-12-07T02:00:43;99140.69;;;3.59;67.67
64189;BME280;50493;50.970;10.082;2022-12-07T02:03:15;99136.34;;;3.53;66.96
64189;BME280;50493;50.970;10.082;2022-12-07T02:05:43;99136.41;;;3.78;65.68
64189;BME280;50493;50.970;10.082;2022-12-07T02:08:09;99131.25;;;3.92;64.71
64189;BME280;50493;50.970;10.082;2022-12-07T02:10:36;99127.81;;;3.84;64.94
64189;BME280;50493;50.970;10.082;2022-12-07T02:13:04;99123.50;;;3.87;64.44
64189;BME280;50493;50.970;10.082;2022-12-07T02:15:41;99125.22;;;3.85;65.73
64189;BME280;50493;50.970;10.082;2022-12-07T02:18:16;99120.06;;;3.96;66.13
64189;BME280;50493;50.970;10.082;2022-12-07T02:20:51;99112.31;;;3.93;66.85
64189;BME280;50493;50.970;10.082;2022-12-07T02:23:41;99114.81;;;3.56;67.02
64189;BME280;50493;50.970;10.082;2022-12-07T02:26:41;99120.72;;;3.16;68.18
64189;BME280;50493;50.970;10.082;2022-12-07T02:29:16;99113.13;;;3.67;67.40
64189;BME280;50493;50.970;10.082;2022-12-07T02:31:46;99110.53;;;3.70;66.60
64189;BME280;50493;50.970;10.082;2022-12-07T02:34:20;99108.78;;;3.60;66.79
64189;BME280;50493;50.970;10.082;2022-12-07T02:36:52;99118.28;;;3.58;66.70
64189;BME280;50493;50.970;10.082;2022-12-07T02:39:26;99101.09;;;3.72;66.97
64189;BME280;50493;50.970;10.082;2022-12-07T02:41:56;99098.44;;;3.48;67.29
64189;BME280;50493;50.970;10.082;2022-12-07T02:44:27;99099.25;;;3.30;67.94
64189;BME280;50493;50.970;10.082;2022-12-07T02:46:55;99094.97;;;3.41;67.89
64189;BME280;50493;50.970;10.082;2022-12-07T02:49:22;99094.97;;;3.39;67.06
64189;BME280;50493;50.970;10.082;2022-12-07T02:51:49;99094.03;;;3.25;68.48
64189;BME280;50493;50.970;10.082;2022-12-07T02:54:18;99095.81;;;3.38;67.64
64189;BME280;50493;50.970;10.082;2022-12-07T02:56:47;99088.94;;;3.40;68.47
64189;BME280;50493;50.970;10.082;2022-12-07T02:59:19;99088.13;;;3.57;67.54
64189;BME280;50493;50.970;10.082;2022-12-07T03:01:56;99088.94;;;3.44;68.19
64189;BME280;50493;50.970;10.082;2022-12-07T03:04:34;99084.63;;;3.43;68.31
64189;BME280;50493;50.970;10.082;2022-12-07T03:07:06;99084.66;;;3.52;68.24
64189;BME280;50493;50.970;10.082;2022-12-07T03:09:41;99080.31;;;3.29;68.64
64189;BME280;50493;50.970;10.082;2022-12-07T03:12:13;99078.50;;;3.10;68.69
64189;BME280;50493;50.970;10.082;2022-12-07T03:14:45;99074.19;;;3.04;68.84
64189;BME280;50493;50.970;10.082;2022-12-07T03:17:18;99080.00;;;2.70;70.31
64189;BME280;50493;50.970;10.082;2022-12-07T03:19:45;99083.38;;;2.60;71.35
64189;BME280;50493;50.970;10.082;2022-12-07T03:22:13;99080.97;;;2.83;71.29
64189;BME280;50493;50.970;10.082;2022-12-07T03:24:43;99075.81;;;2.89;69.57
64189;BME280;50493;50.970;10.082;2022-12-07T03:27:13;99076.72;;;2.99;70.06
64189;BME280;50493;50.970;10.082;2022-12-07T03:29:44;99075.03;;;2.98;71.06
64189;BME280;50493;50.970;10.082;2022-12-07T03:32:16;99068.13;;;3.00;71.13
64189;BME280;50493;50.970;10.082;2022-12-07T03:34:47;99066.47;;;3.16;70.43
64189;BME280;50493;50.970;10.082;2022-12-07T03:37:17;99063.91;;;3.18;70.24
64189;BME280;50493;50.970;10.082;2022-12-07T03:39:48;99066.53;;;3.33;68.85
64189;BME280;50493;50.970;10.082;2022-12-07T03:42:15;99065.69;;;3.40;68.91
64189;BME280;50493;50.970;10.082;2022-12-07T03:44:41;99065.56;;;3.00;70.25
64189;BME280;50493;50.970;10.082;2022-12-07T03:47:12;99072.50;;;3.15;70.35
64189;BME280;50493;50.970;10.082;2022-12-07T03:49:43;99074.28;;;3.38;70.25
64189;BME280;50493;50.970;10.082;2022-12-07T03:52:16;99069.78;;;2.95;71.17
64189;BME280;50493;50.970;10.082;2022-12-07T03:54:47;99082.53;;;2.60;70.36
64189;BME280;50493;50.970;10.082;2022-12-07T03:57:15;99074.84;;;2.73;71.30
64189;BME280;50493;50.970;10.082;2022-12-07T03:59:41;99075.75;;;2.80;71.56
64189;BME280;50493;50.970;10.082;2022-12-07T04:02:11;99078.22;;;2.57;72.14
64189;BME280;50493;50.970;10.082;2022-12-07T04:04:38;99078.09;;;2.38;73.99
64189;BME280;50493;50.970;10.082;2022-12-07T04:07:05;99076.41;;;2.44;72.17
64189;BME280;50493;50.970;10.082;2022-12-07T04:09:31;99063.84;;;3.01;71.46
64189;BME280;50493;50.970;10.082;2022-12-07T04:11:56;99063.03;;;3.16;70.64
64189;BME280;50493;50.970;10.082;2022-12-07T04:14:21;99066.38;;;2.93;70.79
64189;BME280;50493;50.970;10.082;2022-12-07T04:16:48;99059.53;;;2.98;70.98
64189;BME280;50493;50.970;10.082;2022-12-07T04:19:15;99057.00;;;3.09;70.29
64189;BME280;50493;50.970;10.082;2022-12-07T04:21:41;99055.91;;;2.65;70.95
64189;BME280;50493;50.970;10.082;2022-12-07T04:24:08;99056.00;;;2.82;71.11
64189;BME280;50493;50.970;10.082;2022-12-07T04:26:33;99054.25;;;2.83;70.42
64189;BME280;50493;50.970;10.082;2022-12-07T04:28:59;99052.66;;;3.03;71.47
64189;BME280;50493;50.970;10.082;2022-12-07T04:31:24;99054.31;;;2.94;71.76
64189;BME280;50493;50.970;10.082;2022-12-07T04:33:50;99056.16;;;3.18;71.01
64189;BME280;50493;50.970;10.082;2022-12-07T04:36:15;99050.84;;;2.85;72.10
64189;BME280;50493;50.970;10.082;2022-12-07T04:38:41;99049.09;;;2.80;73.03
64189;BME280;50493;50.970;10.082;2022-12-07T04:41:08;99045.78;;;3.09;71.14
64189;BME280;50493;50.970;10.082;2022-12-07T04:43:35;99054.19;;;2.64;73.42
64189;BME280;50493;50.970;10.082;2022-12-07T04:46:00;99055.81;;;2.47;71.42
64189;BME280;50493;50.970;10.082;2022-12-07T04:48:26;99055.09;;;2.79;70.36
64189;BME280;50493;50.970;10.082;2022-12-07T04:50:52;99052.50;;;2.76;71.28
64189;BME280;50493;50.970;10.082;2022-12-07T04:53:17;99064.41;;;2.49;73.13
64189;BME280;50493;50.970;10.082;2022-12-07T04:55:43;99061.13;;;2.78;74.58
64189;BME280;50493;50.970;10.082;2022-12-07T04:58:11;99062.91;;;2.88;71.14
64189;BME280;50493;50.970;10.082;2022-12-07T05:00:36;99056.72;;;2.56;71.62
64189;BME280;50493;50.970;10.082;2022-12-07T05:03:01;99065.38;;;2.66;73.12
64189;BME280;50493;50.970;10.082;2022-12-07T05:05:27;99064.28;;;2.30;73.75
64189;BME280;50493;50.970;10.082;2022-12-07T05:07:52;99056.63;;;2.39;72.09
64189;BME280;50493;50.970;10.082;2022-12-07T05:10:18;99058.47;;;2.62;73.35
64189;BME280;50493;50.970;10.082;2022-12-07T05:12:43;99073.06;;;2.60;72.89
64189;BME280;50493;50.970;10.082;2022-12-07T05:15:10;99057.44;;;2.32;72.45
64189;BME280;50493;50.970;10.082;2022-12-07T05:17:36;99059.25;;;2.49;73.16
64189;BME280;50493;50.970;10.082;2022-12-07T05:20:02;99061.84;;;2.52;73.86
64189;BME280;50493;50.970;10.082;2022-12-07T05:22:27;99054.31;;;2.92;70.62
64189;BME280;50493;50.970;10.082;2022-12-07T05:24:53;99066.16;;;2.51;72.64
64189;BME280;50493;50.970;10.082;2022-12-07T05:27:18;99062.34;;;1.95;74.26
64189;BME280;50493;50.970;10.082;2022-12-07T05:29:44;99071.09;;;2.19;74.70
64189;BME280;50493;50.970;10.082;2022-12-07T05:32:11;99071.09;;;2.16;75.84
64189;BME280;50493;50.970;10.082;2022-12-07T05:34:36;99066.84;;;2.29;74.28
64189;BME280;50493;50.970;10.082;2022-12-07T05:37:02;99056.84;;;2.80;73.69
64189;BME280;50493;50.970;10.082;2022-12-07T05:39:27;99068.06;;;2.85;71.16
64189;BME280;50493;50.970;10.082;2022-12-07T05:41:53;99056.78;;;2.70;72.12
64189;BME280;50493;50.970;10.082;2022-12-07T05:44:36;99065.09;;;2.21;74.92
64189;BME280;50493;50.970;10.082;2022-12-07T05:47:02;99065.78;;;1.96;74.38
64189;BME280;50493;50.970;10.082;2022-12-07T05:49:29;99061.53;;;2.01;74.06
64189;BME280;50493;50.970;10.082;2022-12-07T05:51:54;99059.19;;;2.36;73.43
64189;BME280;50493;50.970;10.082;2022-12-07T05:54:20;99071.09;;;2.16;73.78
64189;BME280;50493;50.970;10.082;2022-12-07T05:56:45;99066.09;;;2.40;74.54
64189;BME280;50493;50.970;10.082;2022-12-07T05:59:11;99057.47;;;2.38;72.96
64189;BME280;50493;50.970;10.082;2022-12-07T06:01:49;99062.59;;;2.35;72.87
64189;BME280;50493;50.970;10.082;2022-12-07T06:04:14;99062.59;;;2.29;73.26
64189;BME280;50493;50.970;10.082;2022-12-07T06:06:41;99065.25;;;2.42;73.17
64189;BME280;50493;50.970;10.082;2022-12-07T06:09:07;99067.78;;;2.37;73.26
64189;BME280;50493;50.970;10.082;2022-12-07T06:11:32;99065.31;;;2.51;73.80
64189;BME280;50493;50.970;10.082;2022-12-07T06:14:16;99068.94;;;2.90;73.94
64189;BME280;50493;50.970;10.082;2022-12-07T06:16:42;99057.91;;;3.28;73.30
64189;BME280;50493;50.970;10.082;2022-12-07T06:19:07;99054.50;;;3.48;70.02
64189;BME280;50493;50.970;10.082;2022-12-07T06:21:33;99062.28;;;3.52;70.79
64189;BME280;50493;50.970;10.082;2022-12-07T06:24:00;99064.03;;;3.87;69.30
64189;BME280;50493;50.970;10.082;2022-12-07T06:26:25;99059.69;;;3.69;70.96
64189;BME280;50493;50.970;10.082;2022-12-07T06:28:51;99068.25;;;3.47;68.78
64189;BME280;50493;50.970;10.082;2022-12-07T06:31:16;99060.50;;;3.42;70.83
64189;BME280;50493;50.970;10.082;2022-12-07T06:33:42;99063.03;;;3.16;72.40
64189;BME280;50493;50.970;10.082;2022-12-07T06:36:08;99062.25;;;3.57;72.15
64189;BME280;50493;50.970;10.082;2022-12-07T06:38:34;99064.81;;;3.32;70.39
64189;BME280;50493;50.970;10.082;2022-12-07T06:41:01;99059.69;;;3.63;70.84
64189;BME280;50493;50.970;10.082;2022-12-07T06:43:26;99056.25;;;3.70;69.16
64189;BME280;50493;50.970;10.082;2022-12-07T06:45:52;99059.69;;;3.68;69.91
64189;BME280;50493;50.970;10.082;2022-12-07T06:48:17;99067.41;;;3.32;70.93
64189;BME280;50493;50.970;10.082;2022-12-07T06:50:44;99068.22;;;3.22;70.36
64189;BME280;50493;50.970;10.082;2022-12-07T06:53:09;99076.53;;;2.65;70.77
64189;BME280;50493;50.970;10.082;2022-12-07T06:55:35;99075.06;;;3.15;72.03
64189;BME280;50493;50.970;10.082;2022-12-07T06:58:02;99079.09;;;2.61;70.84
64189;BME280;50493;50.970;10.082;2022-12-07T07:00:28;99075.84;;;2.96;71.62
64189;BME280;50493;50.970;10.082;2022-12-07T07:02:53;99078.38;;;2.88;72.70
64189;BME280;50493;50.970;10.082;2022-12-07T07:05:19;99074.28;;;3.35;70.95
64189;BME280;50493;50.970;10.082;2022-12-07T07:07:47;99079.47;;;3.52;71.27
64189;BME280;50493;50.970;10.082;2022-12-07T07:10:13;99075.22;;;3.63;70.92
64189;BME280;50493;50.970;10.082;2022-12-07T07:12:38;99082.94;;;3.54;71.37
64189;BME280;50493;50.970;10.082;2022-12-07T07:15:06;99076.91;;;3.46;68.71
64189;BME280;50493;50.970;10.082;2022-12-07T07:17:32;99076.97;;;3.77;71.48
64189;BME280;50493;50.970;10.082;2022-12-07T07:19:57;99081.25;;;4.01;71.53
64189;BME280;50493;50.970;10.082;2022-12-07T07:22:23;99077.81;;;4.02;70.00
64189;BME280;50493;50.970;10.082;2022-12-07T07:24:48;99080.41;;;4.10;69.06
64189;BME280;50493;50.970;10.082;2022-12-07T07:27:13;99080.41;;;3.89;70.88
64189;BME280;50493;50.970;10.082;2022-12-07T07:29:39;99081.25;;;4.01;69.48
64189;BME280;50493;50.970;10.082;2022-12-07T07:32:06;99086.44;;;3.98;70.51
64189;BME280;50493;50.970;10.082;2022-12-07T07:34:32;99078.66;;;3.87;72.97
64189;BME280;50493;50.970;10.082;2022-12-07T07:36:58;99083.81;;;3.76;71.21
64189;BME280;50493;50.970;10.082;2022-12-07T07:39:23;99084.72;;;3.94;72.29
64189;BME280;50493;50.970;10.082;2022-12-07T07:41:49;99076.94;;;3.80;71.59
64189;BME280;50493;50.970;10.082;2022-12-07T07:44:14;99083.78;;;3.53;70.38
64189;BME280;50493;50.970;10.082;2022-12-07T07:46:40;99085.47;;;3.38;70.70
64189;BME280;50493;50.970;10.082;2022-12-07T07:49:06;99089.84;;;3.63;70.44
64189;BME280;50493;50.970;10.082;2022-12-07T07:51:32;99091.56;;;3.50;70.33
64189;BME280;50493;50.970;10.082;2022-12-07T07:53:57;99080.38;;;4.03;71.02
64189;BME280;50493;50.970;10.082;2022-12-07T07:56:23;99087.25;;;3.58;69.90
64189;BME280;50493;50.970;10.082;2022-12-07T07:58:51;99085.56;;;3.76;70.02
64189;BME280;50493;50.970;10.082;2022-12-07T08:01:16;99078.66;;;3.88;69.48
64189;BME280;50493;50.970;10.082;2022-12-07T08:03:44;99086.44;;;4.08;70.62
64189;BME280;50493;50.970;10.082;2022-12-07T08:06:11;99082.13;;;3.98;69.81
64189;BME280;50493;50.970;10.082;2022-12-07T08:08:37;99087.19;;;3.27;70.61
64189;BME280;50493;50.970;10.082;2022-12-07T08:11:04;99084.56;;;3.19;72.14
64189;BME280;50493;50.970;10.082;2022-12-07T08:13:30;99083.81;;;3.62;70.45
64189;BME280;50493;50.970;10.082;2022-12-07T08:15:55;99083.72;;;3.16;70.90
64189;BME280;50493;50.970;10.082;2022-12-07T08:18:20;99086.31;;;3.31;69.82
64189;BME280;50493;50.970;10.082;2022-12-07T08:20:46;99091.38;;;2.99;70.60
64189;BME280;50493;50.970;10.082;2022-12-07T08:23:13;99093.03;;;2.94;72.23
64189;BME280;50493;50.970;10.082;2022-12-07T08:25:38;99097.31;;;2.87;72.23
64189;BME280;50493;50.970;10.082;2022-12-07T08:28:04;99096.59;;;3.13;71.92
64189;BME280;50493;50.970;10.082;2022-12-07T08:30:30;99095.00;;;3.44;71.42
64189;BME280;50493;50.970;10.082;2022-12-07T08:32:56;99095.72;;;3.09;70.68
64189;BME280;50493;50.970;10.082;2022-12-07T08:35:21;99094.97;;;3.36;70.68
64189;BME280;50493;50.970;10.082;2022-12-07T08:37:47;99099.28;;;3.47;71.70
64189;BME280;50493;50.970;10.082;2022-12-07T08:40:14;99094.22;;;4.02;68.85
64189;BME280;50493;50.970;10.082;2022-12-07T08:42:41;99091.63;;;4.02;70.40
64189;BME280;50493;50.970;10.082;2022-12-07T08:45:09;99100.22;;;3.78;69.21
64189;BME280;50493;50.970;10.082;2022-12-07T08:47:37;99101.09;;;3.85;68.21
64189;BME280;50493;50.970;10.082;2022-12-07T08:50:06;99098.53;;;4.27;67.80
64189;BME280;50493;50.970;10.082;2022-12-07T08:52:33;99103.66;;;3.80;66.12
64189;BME280;50493;50.970;10.082;2022-12-07T08:55:00;99096.78;;;4.22;70.38
64189;BME280;50493;50.970;10.082;2022-12-07T08:57:28;99097.63;;;4.26;68.74
64189;BME280;50493;50.970;10.082;2022-12-07T08:59:54;99102.81;;;4.23;68.64
64189;BME280;50493;50.970;10.082;2022-12-07T09:02:19;99094.22;;;4.02;68.24
64189;BME280;50493;50.970;10.082;2022-12-07T09:04:44;99104.53;;;4.33;69.91
64189;BME280;50493;50.970;10.082;2022-12-07T09:07:10;99095.84;;;3.42;68.32
64189;BME280;50493;50.970;10.082;2022-12-07T09:09:36;99107.03;;;3.47;71.20
64189;BME280;50493;50.970;10.082;2022-12-07T09:12:01;99112.22;;;3.56;70.80
64189;BME280;50493;50.970;10.082;2022-12-07T09:14:28;99111.31;;;3.38;69.91
64189;BME280;50493;50.970;10.082;2022-12-07T09:16:54;99116.56;;;3.62;68.76
64189;BME280;50493;50.970;10.082;2022-12-07T09:19:19;99122.53;;;3.45;68.31
64189;BME280;50493;50.970;10.082;2022-12-07T09:21:44;99120.81;;;3.43;71.65
64189;BME280;50493;50.970;10.082;2022-12-07T09:24:11;99110.34;;;3.02;72.84
64189;BME280;50493;50.970;10.082;2022-12-07T09:26:36;99113.84;;;3.26;70.90
64189;BME280;50493;50.970;10.082;2022-12-07T09:29:04;99109.72;;;3.99;69.58
64189;BME280;50493;50.970;10.082;2022-12-07T09:31:31;99116.53;;;3.57;68.83
64189;BME280;50493;50.970;10.082;2022-12-07T09:33:58;99118.28;;;3.58;69.45
64189;BME280;50493;50.970;10.082;2022-12-07T09:36:24;99118.28;;;3.58;70.84
64189;BME280;50493;50.970;10.082;2022-12-07T09:38:49;99114.88;;;3.87;72.24
64189;BME280;50493;50.970;10.082;2022-12-07T09:41:14;99115.66;;;3.52;69.56
64189;BME280;50493;50.970;10.082;2022-12-07T09:43:41;99110.56;;;3.66;70.85
64189;BME280;50493;50.970;10.082;2022-12-07T09:46:11;99113.81;;;3.09;70.74
64189;BME280;50493;50.970;10.082;2022-12-07T09:48:40;99102.63;;;3.18;72.55
64189;BME280;50493;50.970;10.082;2022-12-07T09:51:13;99102.59;;;3.02;71.44
64189;BME280;50493;50.970;10.082;2022-12-07T09:53:39;99100.91;;;3.11;73.02
64189;BME280;50493;50.970;10.082;2022-12-07T09:56:05;99106.72;;;2.80;72.24
64189;BME280;50493;50.970;10.082;2022-12-07T09:58:32;99104.19;;;2.88;73.89
64189;BME280;50493;50.970;10.082;2022-12-07T10:01:01;99104.16;;;2.82;74.48
64189;BME280;50493;50.970;10.082;2022-12-07T10:03:27;99101.56;;;2.80;72.26
64189;BME280;50493;50.970;10.082;2022-12-07T10:05:55;99101.34;;;2.40;74.93
64189;BME280;50493;50.970;10.082;2022-12-07T10:08:22;99093.75;;;2.63;73.69
64189;BME280;50493;50.970;10.082;2022-12-07T10:10:50;99095.78;;;3.26;72.75
64189;BME280;50493;50.970;10.082;2022-12-07T10:13:19;99093.75;;;2.63;73.79
64189;BME280;50493;50.970;10.082;2022-12-07T10:15:49;99093.75;;;2.68;73.88
64189;BME280;50493;50.970;10.082;2022-12-07T10:18:26;99089.09;;;2.13;76.13
64189;BME280;50493;50.970;10.082;2022-12-07T10:21:04;99083.47;;;2.72;75.42
64189;BME280;50493;50.970;10.082;2022-12-07T10:23:30;99083.63;;;3.03;73.40
64189;BME280;50493;50.970;10.082;2022-12-07T10:25:55;99080.34;;;3.48;72.26
64189;BME280;50493;50.970;10.082;2022-12-07T10:28:21;99073.38;;;3.25;72.05
64189;BME280;50493;50.970;10.082;2022-12-07T10:30:53;99067.44;;;4.33;70.18
64189;BME280;50493;50.970;10.082;2022-12-07T10:33:29;99076.09;;;3.95;69.93
64189;BME280;50493;50.970;10.082;2022-12-07T10:35:55;99069.94;;;3.20;72.31
64189;BME280;50493;50.970;10.082;2022-12-07T10:38:23;99075.19;;;3.51;70.71
64189;BME280;50493;50.970;10.082;2022-12-07T10:41:02;99071.66;;;3.21;72.25
64189;BME280;50493;50.970;10.082;2022-12-07T10:43:28;99072.66;;;3.94;70.83
64189;BME280;50493;50.970;10.082;2022-12-07T10:46:14;99070.88;;;4.33;70.48
64189;BME280;50493;50.970;10.082;2022-12-07T10:48:52;99070.94;;;4.04;68.67
64189;BME280;50493;50.970;10.082;2022-12-07T10:51:25;99070.03;;;3.79;71.53
64189;BME280;50493;50.970;10.082;2022-12-07T10:54:00;99073.50;;;3.99;71.29
64189;BME280;50493;50.970;10.082;2022-12-07T10:56:52;99068.31;;;4.46;68.57
64189;BME280;50493;50.970;10.082;2022-12-07T10:59:36;99063.88;;;4.80;69.06
64189;BME280;50493;50.970;10.082;2022-12-07T11:02:09;99058.84;;;4.20;68.53
64189;BME280;50493;50.970;10.082;2022-12-07T11:04:50;99060.44;;;4.73;67.72
64189;BME280;50493;50.970;10.082;2022-12-07T11:07:27;99063.16;;;4.02;69.40
64189;BME280;50493;50.970;10.082;2022-12-07T11:10:02;99057.06;;;4.45;69.31
64189;BME280;50493;50.970;10.082;2022-12-07T11:12:41;99049.34;;;4.23;68.97
64189;BME280;50493;50.970;10.082;2022-12-07T11:15:15;99049.31;;;4.48;69.47
64189;BME280;50493;50.970;10.082;2022-12-07T11:17:47;99050.13;;;4.63;66.64
64189;BME280;50493;50.970;10.082;2022-12-07T11:20:26;99052.72;;;4.55;67.14
64189;BME280;50493;50.970;10.082;2022-12-07T11:23:00;99044.03;;;4.78;66.51
64189;BME280;50493;50.970;10.082;2022-12-07T11:25:32;99042.84;;;5.47;65.01
64189;BME280;50493;50.970;10.082;2022-12-07T11:28:10;99040.28;;;5.40;64.02
64189;BME280;50493;50.970;10.082;2022-12-07T11:30:42;99029.88;;;5.53;64.11
64189;BME280;50493;50.970;10.082;2022-12-07T11:33:17;99037.09;;;4.86;66.17
64189;BME280;50493;50.970;10.082;2022-12-07T11:35:56;99031.84;;;4.98;66.04
64189;BME280;50493;50.970;10.082;2022-12-07T11:38:32;99030.94;;;5.12;64.42
64189;BME280;50493;50.970;10.082;2022-12-07T11:41:02;99030.16;;;4.91;64.68
64189;BME280;50493;50.970;10.082;2022-12-07T11:43:52;99037.16;;;4.73;65.16
64189;BME280;50493;50.970;10.082;2022-12-07T11:46:20;99031.94;;;4.83;64.98
64189;BME280;50493;50.970;10.082;2022-12-07T11:48:53;99025.84;;;4.96;64.87
64189;BME280;50493;50.970;10.082;2022-12-07T11:51:21;99024.94;;;5.06;65.41
64189;BME280;50493;50.970;10.082;2022-12-07T11:53:50;99022.31;;;5.11;64.39
64189;BME280;50493;50.970;10.082;2022-12-07T11:56:20;99021.56;;;4.89;64.61
64189;BME280;50493;50.970;10.082;2022-12-07T11:58:49;99014.72;;;4.69;66.32
64189;BME280;50493;50.970;10.082;2022-12-07T12:01:28;99023.50;;;3.79;70.64
64189;BME280;50493;50.970;10.082;2022-12-07T12:04:04;99018.31;;;4.16;70.10
64189;BME280;50493;50.970;10.082;2022-12-07T12:06:32;99016.56;;;4.30;69.22
64189;BME280;50493;50.970;10.082;2022-12-07T12:09:04;99016.56;;;4.36;68.95
64189;BME280;50493;50.970;10.082;2022-12-07T12:11:43;98997.31;;;4.99;65.41
64189;BME280;50493;50.970;10.082;2022-12-07T12:14:30;99000.91;;;4.64;67.21
64189;BME280;50493;50.970;10.082;2022-12-07T12:17:20;98995.72;;;4.70;64.76
64189;BME280;50493;50.970;10.082;2022-12-07T12:20:00;99006.25;;;4.08;69.94
64189;BME280;50493;50.970;10.082;2022-12-07T12:22:27;99005.41;;;3.45;72.96
64189;BME280;50493;50.970;10.082;2022-12-07T12:24:57;99001.06;;;3.47;72.22
64189;BME280;50493;50.970;10.082;2022-12-07T12:27:27;98999.28;;;3.09;75.10
64189;BME280;50493;50.970;10.082;2022-12-07T12:29:57;99001.03;;;3.06;75.15
64189;BME280;50493;50.970;10.082;2022-12-07T12:32:32;99005.22;;;2.84;76.38
64189;BME280;50493;50.970;10.082;2022-12-07T12:35:20;99008.59;;;2.68;77.04
64189;BME280;50493;50.970;10.082;2022-12-07T12:37:47;99006.06;;;2.76;76.39
64189;BME280;50493;50.970;10.082;2022-12-07T12:40:43;99006.16;;;3.00;75.53
64189;BME280;50493;50.970;10.082;2022-12-07T12:49:54;99002.81;;;3.58;73.36
64189;BME280;50493;50.970;10.082;2022-12-07T12:52:54;98997.66;;;3.42;74.23
64189;BME280;50493;50.970;10.082;2022-12-07T12:58:29;99004.31;;;2.68;78.04
64189;BME280;50493;50.970;10.082;2022-12-07T13:04:18;98989.75;;;2.86;76.99
64189;BME280;50493;50.970;10.082;2022-12-07T13:06:46;98990.72;;;3.36;75.08
64189;BME280;50493;50.970;10.082;2022-12-07T13:09:21;98988.97;;;4.26;72.33
64189;BME280;50493;50.970;10.082;2022-12-07T13:11:49;98988.91;;;4.48;70.42
64189;BME280;50493;50.970;10.082;2022-12-07T13:14:41;98981.19;;;4.29;70.67
64189;BME280;50493;50.970;10.082;2022-12-07T13:17:09;98976.78;;;4.57;70.12
64189;BME280;50493;50.970;10.082;2022-12-07T13:19:56;98978.50;;;4.66;69.05
64189;BME280;50493;50.970;10.082;2022-12-07T13:22:43;98971.19;;;5.33;66.67